ADDS METAR Data INFO
IDs: Format: Raw Decoded Include TAF

Data at: 0148 UTC 17 Oct 2017

KVTN 170052Z AUTO 00000KT 10SM CLR 13/01 A3007 RMK AO2 SLP192 T01280006
KVTN 162352Z AUTO 35005KT 10SM CLR 19/00 A3005 RMK AO2 SLP180 T01940000 10267 20194 53004
KVTN 162252Z AUTO 33009KT 10SM CLR 24/M02 A3004 RMK AO2 SLP171 T02441017
KVTN 162152Z AUTO 27010G18KT 10SM CLR 25/M06 A3003 RMK AO2 SLP167 T02501056
KVTN 162052Z AUTO 29010G17KT 10SM CLR 27/M05 A3003 RMK AO2 SLP168 T02671050 56023
KVTN 161952Z AUTO 27010G18KT 10SM CLR 26/M04 A3005 RMK AO2 SLP173 T02611044
KVTN 161852Z AUTO 26011KT 10SM CLR 25/M02 A3008 RMK AO2 SLP184 T02501017
KVTN 161752Z AUTO 25010KT 10SM CLR 22/M01 A3011 RMK AO2 SLP197 T02221011 10228 21006 58017
KVTN 161652Z AUTO 25010KT 10SM CLR 19/M01 A3013 RMK AO2 SLP209 T01941006
KVTN 161552Z AUTO 24011KT 10SM CLR 16/M01 A3015 RMK AO2 SLP217 T01611006
KVTN 161452Z AUTO 24007KT 10SM CLR 10/01 A3016 RMK AO2 SLP226 T01000006 56009
KVTN 161352Z AUTO 26004KT 10SM CLR 04/00 A3017 RMK AO2 SLP232 T00440000
KVTN 161252Z AUTO 28003KT 10SM CLR 01/M02 A3018 RMK AO2 SLP236 T00111017
KVTN 161152Z AUTO 00000KT 10SM CLR 01/M03 A3019 RMK AO2 SLP236 T00061028 10028 20000 56018
KVTN 161052Z AUTO 00000KT 10SM CLR 01/M02 A3021 RMK AO2 SLP238 T00111022
KVTN 160952Z AUTO 23004KT 10SM CLR 03/M02 A3023 RMK AO2 SLP242 T00281017
KVTN 160852Z AUTO 26003KT 10SM CLR 01/M02 A3025 RMK AO2 SLP252 T00111022 58019
KVTN 160752Z AUTO 23004KT 10SM CLR 01/M02 A3027 RMK AO2 SLP260 T00061022
KVTN 160652Z AUTO 23004KT 10SM CLR 02/M01 A3029 RMK AO2 SLP267 T00171011
KVTN 160552Z AUTO 24003KT 10SM CLR 01/M02 A3031 RMK AO2 SLP274 T00061017 10133 20000 401721022 58006
KVTN 160452Z AUTO 26004KT 10SM CLR 01/M02 A3032 RMK AO2 SLP281 T00061022
KVTN 160352Z AUTO 26003KT 10SM CLR 01/M02 A3033 RMK AO2 SLP286 T00111017
KVTN 160252Z AUTO 23005KT 10SM CLR 03/M02 A3033 RMK AO2 SLP290 T00281017 51007
KVTN 160152Z AUTO 10SM CLR 05/M01 A3032 RMK AO2 SLP289 T00501011
KVTN 160052Z AUTO 28005KT 10SM CLR 07/M01 A3032 RMK AO2 SLP286 T00721011
KVTN 152352Z AUTO 30003KT 10SM CLR 13/M02 A3031 RMK AO2 SLP277 T01331017 10172 20133 55003
KVTN 152252Z AUTO 30008KT 10SM CLR 17/M02 A3030 RMK AO2 SLP273 T01671022
KVTN 152152Z AUTO 28014KT 10SM CLR 17/M02 A3031 RMK AO2 SLP275 T01671017
KVTN 152052Z AUTO 30015KT 10SM CLR 17/M02 A3032 RMK AO2 SLP276 T01671017 56008
KVTN 151952Z AUTO 29015G23KT 10SM CLR 16/M03 A3032 RMK AO2 SLP276 T01611028
KVTN 151852Z AUTO 31012G26KT 10SM CLR 16/M02 A3033 RMK AO2 PK WND 27026/1850 SLP279 T01611022
KVTN 151752Z AUTO 29013G19KT 10SM CLR 16/M02 A3034 RMK AO2 SLP283 I6000 T01561017 10156 21022 51003
KVTN 151652Z AUTO 30013KT 10SM CLR 14/M02 A3034 RMK AO2 SLP284 T01391017
KVTN 151552Z AUTO 27012KT 10SM CLR 10/01 A3034 RMK AO2 SLP288 T01000011
KVTN 151452Z AUTO 25009KT 10SM CLR 05/01 A3033 RMK AO2 SLP287 I3000 T00500011 53012
KVTN 151352Z AUTO 25006KT 10SM CLR 01/M02 A3031 RMK AO2 SLP286 T00061017